createdAt,value
2023-03-06T00:01:48.502Z,11.80
2023-03-06T00:04:16.261Z,12.93
2023-03-06T00:06:43.670Z,8.70
2023-03-06T00:09:10.898Z,10.23
2023-03-06T00:11:38.177Z,12.20
2023-03-06T00:14:05.402Z,15.37
2023-03-06T00:16:32.677Z,8.40
2023-03-06T00:19:00.023Z,8.77
2023-03-06T00:21:27.352Z,9.03
2023-03-06T00:23:54.794Z,11.33
2023-03-06T00:26:22.154Z,10.47
2023-03-06T00:28:49.424Z,10.67
2023-03-06T00:31:17.451Z,9.50
2023-03-06T00:33:44.659Z,11.77
2023-03-06T00:36:12.018Z,10.90
2023-03-06T00:38:41.477Z,9.87
2023-03-06T00:41:10.285Z,10.37
2023-03-06T00:43:37.547Z,8.63
2023-03-06T00:46:05.743Z,8.37
2023-03-06T00:48:33.946Z,13.07
2023-03-06T00:51:01.393Z,12.40
2023-03-06T00:53:28.594Z,10.23
2023-03-06T00:55:55.957Z,9.93
2023-03-06T00:58:23.399Z,9.80
2023-03-06T01:00:50.607Z,10.27
2023-03-06T01:03:18.000Z,13.40
2023-03-06T01:05:45.701Z,8.07
2023-03-06T01:08:12.881Z,14.20
2023-03-06T01:10:41.367Z,9.83
2023-03-06T01:13:09.650Z,10.13
2023-03-06T01:15:37.099Z,10.87
2023-03-06T01:18:04.825Z,10.73
2023-03-06T01:20:32.362Z,9.70
2023-03-06T01:22:59.937Z,11.63
2023-03-06T01:25:28.654Z,7.97
2023-03-06T01:27:55.837Z,12.60
2023-03-06T01:30:23.253Z,10.70
2023-03-06T01:32:50.970Z,10.70
2023-03-06T01:35:18.436Z,10.27
2023-03-06T01:37:45.714Z,8.40
2023-03-06T01:40:13.474Z,8.33
2023-03-06T01:42:42.791Z,11.53
2023-03-06T01:45:15.967Z,9.00
2023-03-06T01:47:44.872Z,12.83
2023-03-06T01:50:12.608Z,11.27
2023-03-06T01:52:44.546Z,11.60
2023-03-06T01:55:14.007Z,12.93
2023-03-06T01:57:43.282Z,9.83
2023-03-06T02:00:15.921Z,12.70
2023-03-06T02:02:45.954Z,9.13
2023-03-06T02:05:13.588Z,9.03
2023-03-06T02:07:42.267Z,12.70
2023-03-06T02:10:09.937Z,9.00
2023-03-06T02:12:37.552Z,9.53
2023-03-06T02:15:05.175Z,11.80
2023-03-06T02:17:34.880Z,13.83
2023-03-06T02:20:14.623Z,11.50
2023-03-06T02:23:00.745Z,9.10
2023-03-06T02:25:42.949Z,9.53
2023-03-06T02:28:15.708Z,10.23
2023-03-06T02:30:43.567Z,12.20
2023-03-06T02:33:14.122Z,9.47
2023-03-06T02:35:49.097Z,9.90
2023-03-06T02:38:18.284Z,10.40
2023-03-06T02:40:48.189Z,15.90
2023-03-06T02:43:16.283Z,12.83
2023-03-06T02:45:45.394Z,12.03
2023-03-06T02:48:13.740Z,8.63
2023-03-06T02:50:41.516Z,8.53
2023-03-06T02:53:10.109Z,13.87
2023-03-06T02:55:37.765Z,8.83
2023-03-06T02:58:05.632Z,11.20
2023-03-06T03:00:33.282Z,9.10
2023-03-06T03:03:03.264Z,10.60
2023-03-06T03:05:32.699Z,11.20
2023-03-06T03:08:07.078Z,10.67
2023-03-06T03:10:35.126Z,10.97
2023-03-06T03:13:02.404Z,11.10
2023-03-06T03:15:30.068Z,11.27
2023-03-06T03:17:58.047Z,12.03
2023-03-06T03:20:25.486Z,8.03
2023-03-06T03:22:54.308Z,10.40
2023-03-06T03:25:22.290Z,10.03
2023-03-06T03:27:49.754Z,12.40
2023-03-06T03:30:17.201Z,12.80
2023-03-06T03:32:45.415Z,11.00
2023-03-06T03:35:14.196Z,11.03
2023-03-06T03:37:41.865Z,14.63
2023-03-06T03:40:12.315Z,9.07
2023-03-06T03:42:39.742Z,11.27
2023-03-06T03:45:08.287Z,10.70
2023-03-06T03:47:35.499Z,13.27
2023-03-06T03:50:03.770Z,10.20
2023-03-06T03:52:31.262Z,10.33
2023-03-06T03:54:58.863Z,12.20
2023-03-06T03:57:27.627Z,10.20
2023-03-06T03:59:56.361Z,8.57
2023-03-06T04:02:41.376Z,9.77
2023-03-06T04:05:17.057Z,9.07
2023-03-06T04:07:44.393Z,11.53
2023-03-06T04:10:13.466Z,9.03
2023-03-06T04:12:41.271Z,9.37
2023-03-06T04:15:11.003Z,11.83
2023-03-06T04:17:39.367Z,12.20
2023-03-06T04:20:10.620Z,8.60
2023-03-06T04:22:38.244Z,11.07
2023-03-06T04:25:05.590Z,11.23
2023-03-06T04:27:32.925Z,11.30
2023-03-06T04:30:00.356Z,10.33
2023-03-06T04:32:29.149Z,11.23
2023-03-06T04:34:57.066Z,10.53
2023-03-06T04:37:26.312Z,9.80
2023-03-06T04:39:54.581Z,9.47
2023-03-06T04:42:21.879Z,9.97
2023-03-06T04:44:49.412Z,9.67
2023-03-06T04:47:18.983Z,10.33
2023-03-06T04:49:46.514Z,17.30
2023-03-06T04:52:13.765Z,13.80
2023-03-06T04:54:40.939Z,11.47
2023-03-06T04:57:09.268Z,13.63
2023-03-06T04:59:39.105Z,16.03
2023-03-06T05:02:06.831Z,14.13
2023-03-06T05:04:34.206Z,16.57
2023-03-06T05:07:01.596Z,12.27
2023-03-06T05:09:28.926Z,11.90
2023-03-06T05:11:56.322Z,12.53
2023-03-06T05:14:25.665Z,12.63
2023-03-06T05:16:52.957Z,12.87
2023-03-06T05:19:20.097Z,10.93
2023-03-06T05:21:47.306Z,11.70
2023-03-06T05:24:14.711Z,15.10
2023-03-06T05:26:41.947Z,11.70
2023-03-06T05:29:09.302Z,12.87
2023-03-06T05:31:36.497Z,15.90
2023-03-06T05:34:03.739Z,10.53
2023-03-06T05:36:30.937Z,12.90
2023-03-06T05:38:58.229Z,10.17
2023-03-06T05:41:25.658Z,9.07
2023-03-06T05:43:53.538Z,11.13
2023-03-06T05:46:21.020Z,11.20
2023-03-06T05:48:48.418Z,9.87
2023-03-06T05:51:15.674Z,12.87
2023-03-06T05:53:42.916Z,13.33
2023-03-06T05:56:10.181Z,15.13
2023-03-06T05:58:37.761Z,10.80
2023-03-06T06:01:12.120Z,11.23
2023-03-06T06:03:39.473Z,10.80
2023-03-06T06:06:07.344Z,10.27
2023-03-06T06:08:34.722Z,11.63
2023-03-06T06:11:05.694Z,12.47
2023-03-06T06:13:33.242Z,9.77
2023-03-06T06:16:00.600Z,13.40
2023-03-06T06:18:27.888Z,12.77
2023-03-06T06:20:56.070Z,11.37
2023-03-06T06:23:23.773Z,10.47
2023-03-06T06:25:51.493Z,9.30
2023-03-06T06:28:19.344Z,11.57
2023-03-06T06:30:46.589Z,12.07
2023-03-06T06:33:13.966Z,11.93
2023-03-06T06:35:41.453Z,12.40
2023-03-06T06:38:08.914Z,11.53
2023-03-06T06:40:36.041Z,13.30
2023-03-06T06:43:03.279Z,10.67
2023-03-06T06:45:30.463Z,10.13
2023-03-06T06:47:57.767Z,10.97
2023-03-06T06:50:25.257Z,11.23
2023-03-06T06:52:52.558Z,11.87
2023-03-06T06:55:19.785Z,12.93
2023-03-06T06:57:47.130Z,14.30
2023-03-06T07:00:15.302Z,14.00
2023-03-06T07:02:42.524Z,15.00
2023-03-06T07:05:09.964Z,12.50
2023-03-06T07:07:38.153Z,14.03
2023-03-06T07:10:06.933Z,14.17
2023-03-06T07:12:37.086Z,15.67
2023-03-06T07:15:05.553Z,14.17
2023-03-06T07:17:32.748Z,10.23
2023-03-06T07:19:59.968Z,13.70
2023-03-06T07:22:28.130Z,14.20
2023-03-06T07:24:56.271Z,13.70
2023-03-06T07:27:23.909Z,13.90
2023-03-06T07:29:51.159Z,15.47
2023-03-06T07:32:18.639Z,13.03
2023-03-06T07:34:46.386Z,13.13
2023-03-06T07:37:13.601Z,13.60
2023-03-06T07:39:40.741Z,14.50
2023-03-06T07:42:07.968Z,13.13
2023-03-06T07:44:38.628Z,12.57
2023-03-06T07:47:06.020Z,14.80
2023-03-06T07:49:33.347Z,16.17
2023-03-06T07:52:01.680Z,19.20
2023-03-06T07:54:30.620Z,20.00
2023-03-06T07:56:57.854Z,15.53
2023-03-06T07:59:26.119Z,13.67
2023-03-06T08:01:54.779Z,20.03
2023-03-06T08:04:22.037Z,16.40
2023-03-06T08:06:49.186Z,17.60
2023-03-06T08:09:17.693Z,15.60
2023-03-06T08:11:45.228Z,16.17
2023-03-06T08:14:13.454Z,14.40
2023-03-06T08:16:40.746Z,13.83
2023-03-06T08:19:08.592Z,19.30
2023-03-06T08:21:37.188Z,14.17
2023-03-06T08:24:05.006Z,15.57
2023-03-06T08:26:33.042Z,14.00
2023-03-06T08:29:01.507Z,15.07
2023-03-06T08:31:39.075Z,17.00
2023-03-06T08:34:08.576Z,14.33
2023-03-06T08:36:35.988Z,14.73
2023-03-06T08:39:03.713Z,14.07
2023-03-06T08:41:31.086Z,13.87
2023-03-06T08:43:58.625Z,15.73
2023-03-06T08:46:26.535Z,16.53
2023-03-06T08:48:53.981Z,15.23
2023-03-06T08:51:21.661Z,16.57
2023-03-06T08:53:49.281Z,13.90
2023-03-06T08:56:21.996Z,15.40
2023-03-06T08:58:49.540Z,13.17
2023-03-06T09:01:18.101Z,13.73
2023-03-06T09:03:45.363Z,17.37
2023-03-06T09:06:12.984Z,17.87
2023-03-06T09:08:44.451Z,16.50
2023-03-06T09:11:12.441Z,17.00
2023-03-06T09:13:39.977Z,17.43
2023-03-06T09:16:07.531Z,17.27
2023-03-06T09:18:34.913Z,16.70
2023-03-06T09:21:04.141Z,16.87
2023-03-06T09:23:31.670Z,16.73
2023-03-06T09:26:00.153Z,16.47
2023-03-06T09:28:27.635Z,19.13
2023-03-06T09:30:54.896Z,17.80
2023-03-06T09:33:24.274Z,20.03
2023-03-06T09:35:55.861Z,17.63
2023-03-06T09:38:26.056Z,21.43
2023-03-06T09:41:01.990Z,21.20
2023-03-06T09:43:30.676Z,18.03
2023-03-06T09:45:59.129Z,17.10
2023-03-06T09:48:34.740Z,19.40
2023-03-06T09:51:05.148Z,18.53
2023-03-06T09:53:45.774Z,16.83
2023-03-06T09:56:15.615Z,17.83
2023-03-06T09:58:44.643Z,20.50
2023-03-06T10:01:26.536Z,17.50
2023-03-06T10:03:56.887Z,18.37
2023-03-06T10:06:31.889Z,15.67
2023-03-06T10:09:03.604Z,17.50
2023-03-06T10:11:43.453Z,17.30
2023-03-06T10:14:23.934Z,18.50
2023-03-06T10:16:51.215Z,17.90
2023-03-06T10:19:19.521Z,18.70
2023-03-06T10:21:54.761Z,17.30
2023-03-06T10:24:36.041Z,14.27
2023-03-06T10:27:23.435Z,16.60
2023-03-06T10:30:02.630Z,15.47
2023-03-06T10:32:47.520Z,18.63
2023-03-06T10:35:17.788Z,16.33
2023-03-06T10:37:45.113Z,15.50
2023-03-06T10:40:20.591Z,18.07
2023-03-06T10:42:47.921Z,17.10
2023-03-06T10:45:16.798Z,19.70
2023-03-06T10:47:46.026Z,18.23
2023-03-06T10:50:35.400Z,23.77
2023-03-06T10:53:05.413Z,17.07
2023-03-06T10:55:36.874Z,21.17
2023-03-06T10:58:22.407Z,18.90
2023-03-06T11:01:01.077Z,16.80
2023-03-06T11:03:28.406Z,15.97
2023-03-06T11:05:57.274Z,16.87
2023-03-06T11:08:25.817Z,19.40
2023-03-06T11:10:57.428Z,17.30
2023-03-06T11:13:26.123Z,20.07
2023-03-06T11:16:04.604Z,15.87
2023-03-06T11:18:34.992Z,17.03
2023-03-06T11:21:08.573Z,12.77
2023-03-06T11:23:38.137Z,13.40
2023-03-06T11:26:07.793Z,14.60
2023-03-06T11:28:43.097Z,17.50
2023-03-06T11:31:16.433Z,17.30
2023-03-06T11:33:48.158Z,16.03
2023-03-06T11:36:23.837Z,16.33
2023-03-06T11:38:54.732Z,17.10
2023-03-06T11:41:27.436Z,15.53
2023-03-06T11:44:03.927Z,21.37
2023-03-06T11:47:00.771Z,16.03
2023-03-06T11:49:39.199Z,17.50
2023-03-06T11:52:07.669Z,14.27
2023-03-06T11:54:34.885Z,13.17
2023-03-06T11:57:07.490Z,13.90
2023-03-06T11:59:53.490Z,12.83
2023-03-06T12:02:39.510Z,12.13
2023-03-06T12:05:18.246Z,14.40
2023-03-06T12:07:50.545Z,13.37
2023-03-06T12:10:36.258Z,15.67
2023-03-06T12:16:15.940Z,16.17
2023-03-06T12:18:43.889Z,15.70
2023-03-06T12:21:47.581Z,13.97
2023-03-06T12:24:35.715Z,22.13
2023-03-06T12:27:13.101Z,14.77
2023-03-06T12:29:59.088Z,14.30
2023-03-06T12:32:36.350Z,14.50
2023-03-06T12:35:22.951Z,15.00
2023-03-06T12:37:59.852Z,18.33
2023-03-06T12:40:36.265Z,12.70
2023-03-06T12:43:10.682Z,17.33
2023-03-06T12:45:38.177Z,15.70
2023-03-06T12:48:11.634Z,13.27
2023-03-06T12:50:39.842Z,13.77
2023-03-06T12:53:08.503Z,16.90
2023-03-06T12:55:44.049Z,17.53
2023-03-06T12:58:29.854Z,15.67
2023-03-06T13:01:05.068Z,11.57
2023-03-06T13:03:39.195Z,12.87
2023-03-06T13:06:25.149Z,11.87
2023-03-06T13:08:59.267Z,14.00
2023-03-06T13:11:45.048Z,10.57
2023-03-06T13:14:26.648Z,12.13
2023-03-06T13:16:54.143Z,11.80
2023-03-06T13:19:24.260Z,12.00
2023-03-06T13:22:01.095Z,11.60
2023-03-06T13:24:32.574Z,11.70
2023-03-06T13:27:01.313Z,18.60
2023-03-06T13:29:38.007Z,11.30
2023-03-06T13:32:06.649Z,11.47
2023-03-06T13:34:41.470Z,13.20
2023-03-06T13:37:22.989Z,13.00
2023-03-06T13:39:59.180Z,13.67
2023-03-06T13:42:36.939Z,13.47
2023-03-06T13:45:08.576Z,13.40
2023-03-06T13:47:59.047Z,13.90
2023-03-06T13:50:39.715Z,16.23
2023-03-06T13:53:25.788Z,12.10
2023-03-06T13:56:01.724Z,14.43
2023-03-06T13:58:47.727Z,12.87
2023-03-06T14:01:39.917Z,14.20
2023-03-06T14:04:23.168Z,15.37
2023-03-06T14:06:53.084Z,14.73
2023-03-06T14:09:28.624Z,14.67
2023-03-06T14:11:58.976Z,15.43
2023-03-06T14:14:33.046Z,11.70
2023-03-06T14:17:01.621Z,17.43
2023-03-06T14:19:31.961Z,13.27
2023-03-06T14:21:59.129Z,16.80
2023-03-06T14:24:34.365Z,12.00
2023-03-06T14:27:01.530Z,11.17
2023-03-06T14:29:29.821Z,12.53
2023-03-06T14:31:58.358Z,14.37
2023-03-06T14:34:37.210Z,13.37
2023-03-06T14:37:07.480Z,18.53
2023-03-06T14:39:36.844Z,12.00
2023-03-06T14:42:24.026Z,15.43
2023-03-06T14:45:15.839Z,14.33
2023-03-06T14:47:43.699Z,12.53
2023-03-06T14:50:24.158Z,13.93
2023-03-06T14:52:55.679Z,14.10
2023-03-06T14:55:24.887Z,16.63
2023-03-06T14:58:01.084Z,17.80
2023-03-06T15:00:31.798Z,15.90
2023-03-06T15:02:59.314Z,16.70
2023-03-06T15:05:31.201Z,18.70
2023-03-06T15:08:01.609Z,16.90
2023-03-06T15:10:33.987Z,12.70
2023-03-06T15:13:22.013Z,15.00
2023-03-06T15:16:04.554Z,13.83
2023-03-06T15:18:33.921Z,13.77
2023-03-06T15:21:15.334Z,15.83
2023-03-06T15:23:43.969Z,13.40
2023-03-06T15:26:26.509Z,20.83
2023-03-06T15:29:17.749Z,15.70
2023-03-06T15:31:46.149Z,14.37
2023-03-06T15:34:13.318Z,15.53
2023-03-06T15:36:41.772Z,19.30
2023-03-06T15:39:28.033Z,13.40
2023-03-06T15:41:59.512Z,15.97
2023-03-06T15:44:27.067Z,15.60
2023-03-06T15:47:07.829Z,15.90
2023-03-06T15:49:36.982Z,16.73
2023-03-06T15:52:04.338Z,17.27
2023-03-06T15:54:32.981Z,18.90
2023-03-06T15:57:00.579Z,16.73
2023-03-06T15:59:33.073Z,15.17
2023-03-06T16:02:03.922Z,14.60
2023-03-06T16:04:31.112Z,13.20
2023-03-06T16:06:59.114Z,13.33
2023-03-06T16:09:26.677Z,11.13
2023-03-06T16:11:54.396Z,14.33
2023-03-06T16:14:23.640Z,11.50
2023-03-06T16:16:51.912Z,15.30
2023-03-06T16:19:26.271Z,18.53
2023-03-06T16:21:54.504Z,11.47
2023-03-06T16:24:21.979Z,15.27
2023-03-06T16:26:50.818Z,11.73
2023-03-06T16:29:18.737Z,13.83
2023-03-06T16:31:46.293Z,16.13
2023-03-06T16:34:16.028Z,14.33
2023-03-06T16:36:43.245Z,16.83
2023-03-06T16:39:17.528Z,19.57
2023-03-06T16:41:49.125Z,12.77
2023-03-06T16:44:16.367Z,12.93
2023-03-06T16:46:47.239Z,12.53
2023-03-06T16:49:21.910Z,13.50
2023-03-06T16:51:49.523Z,13.17
2023-03-06T16:54:18.073Z,11.93
2023-03-06T16:56:45.386Z,15.10
2023-03-06T16:59:13.750Z,14.20
2023-03-06T17:01:43.016Z,13.03
2023-03-06T17:04:10.585Z,15.17
2023-03-06T17:06:39.781Z,13.83
2023-03-06T17:09:07.155Z,15.10
2023-03-06T17:11:36.038Z,12.60
2023-03-06T17:14:03.161Z,11.93
2023-03-06T17:16:30.331Z,12.50
2023-03-06T17:18:58.193Z,14.53
2023-03-06T17:21:26.823Z,15.63
2023-03-06T17:23:54.000Z,12.83
2023-03-06T17:26:21.120Z,11.43
2023-03-06T17:28:48.474Z,11.07
2023-03-06T17:31:16.751Z,15.33
2023-03-06T17:33:44.607Z,14.00
2023-03-06T17:36:14.207Z,14.20
2023-03-06T17:38:41.654Z,10.13
2023-03-06T17:41:09.730Z,12.60
2023-03-06T17:43:37.383Z,12.50
2023-03-06T17:46:08.864Z,10.60
2023-03-06T17:48:36.423Z,13.30
2023-03-06T17:51:03.996Z,20.63
2023-03-06T17:53:31.304Z,12.03
2023-03-06T17:55:58.434Z,11.50
2023-03-06T17:58:26.349Z,11.63
2023-03-06T18:00:53.687Z,10.63
2023-03-06T18:03:20.858Z,13.07
2023-03-06T18:05:48.014Z,13.30
2023-03-06T18:08:15.754Z,12.37
2023-03-06T18:10:43.527Z,10.53
2023-03-06T18:13:11.145Z,16.03
2023-03-06T18:15:39.393Z,13.70
2023-03-06T18:18:06.822Z,12.13
2023-03-06T18:20:34.108Z,14.50
2023-03-06T18:23:03.472Z,9.63
2023-03-06T18:25:32.187Z,13.30
2023-03-06T18:27:59.609Z,11.37
2023-03-06T18:30:26.936Z,12.60
2023-03-06T18:32:54.400Z,14.00
2023-03-06T18:35:21.855Z,11.77
2023-03-06T18:37:49.067Z,12.63
2023-03-06T18:40:16.372Z,13.43
2023-03-06T18:42:43.587Z,10.20
2023-03-06T18:45:11.157Z,16.30
2023-03-06T18:47:38.375Z,14.40
2023-03-06T18:50:06.007Z,13.83
2023-03-06T18:52:34.481Z,13.93
2023-03-06T18:55:01.645Z,12.37
2023-03-06T18:57:30.394Z,15.60
2023-03-06T18:59:57.734Z,13.40
2023-03-06T19:02:25.395Z,12.17
2023-03-06T19:04:55.749Z,11.50
2023-03-06T19:07:22.922Z,14.27
2023-03-06T19:09:50.066Z,13.17
2023-03-06T19:12:17.462Z,15.47
2023-03-06T19:14:45.020Z,16.33
2023-03-06T19:17:12.363Z,17.93
2023-03-06T19:19:39.553Z,16.47
2023-03-06T19:22:06.787Z,14.43
2023-03-06T19:24:34.069Z,14.30
2023-03-06T19:27:01.198Z,20.23
2023-03-06T19:29:28.426Z,14.00
2023-03-06T19:31:57.050Z,15.17
2023-03-06T19:34:24.355Z,18.70
2023-03-06T19:36:51.595Z,14.53
2023-03-06T19:39:18.776Z,16.80
2023-03-06T19:41:47.833Z,12.40
2023-03-06T19:44:16.280Z,20.70
2023-03-06T19:46:43.718Z,15.70
2023-03-06T19:49:16.575Z,14.50
2023-03-06T19:51:43.820Z,15.80
2023-03-06T19:54:11.710Z,19.30
2023-03-06T19:56:38.868Z,19.10
2023-03-06T19:59:06.034Z,18.17
2023-03-06T20:01:34.229Z,16.87
2023-03-06T20:04:04.825Z,18.63
2023-03-06T20:06:38.950Z,14.37
2023-03-06T20:09:07.426Z,16.80
2023-03-06T20:11:35.011Z,16.57
2023-03-06T20:14:03.416Z,22.10
2023-03-06T20:16:32.128Z,19.37
2023-03-06T20:19:00.276Z,23.73
2023-03-06T20:21:28.139Z,21.97
2023-03-06T20:23:57.874Z,19.50
2023-03-06T20:26:26.284Z,24.73
2023-03-06T20:28:55.014Z,18.33
2023-03-06T20:31:23.706Z,21.23
2023-03-06T20:33:52.059Z,22.30
2023-03-06T20:36:20.648Z,21.07
2023-03-06T20:38:48.310Z,17.63
2023-03-06T20:41:17.023Z,18.10
2023-03-06T20:43:44.356Z,19.57
2023-03-06T20:46:12.342Z,20.30
2023-03-06T20:48:39.837Z,20.67
2023-03-06T20:51:08.910Z,26.73
2023-03-06T20:53:36.295Z,23.00
2023-03-06T20:56:03.500Z,24.20
2023-03-06T20:58:31.701Z,19.13
2023-03-06T21:01:01.382Z,22.37
2023-03-06T21:03:31.020Z,23.00
2023-03-06T21:05:58.546Z,24.57
2023-03-06T21:08:26.725Z,20.83
2023-03-06T21:10:53.842Z,22.87
2023-03-06T21:13:21.045Z,21.10
2023-03-06T21:15:48.627Z,19.27
2023-03-06T21:18:15.822Z,19.57
2023-03-06T21:20:42.978Z,22.47
2023-03-06T21:23:10.301Z,25.00
2023-03-06T21:25:37.415Z,18.97
2023-03-06T21:28:05.349Z,27.80
2023-03-06T21:30:32.534Z,24.63
2023-03-06T21:33:00.679Z,22.00
2023-03-06T21:35:27.903Z,22.03
2023-03-06T21:37:55.453Z,25.50
2023-03-06T21:40:22.625Z,22.13
2023-03-06T21:42:50.741Z,35.40
2023-03-06T21:45:18.180Z,24.97
2023-03-06T21:47:48.035Z,23.63
2023-03-06T21:50:15.150Z,23.87
2023-03-06T21:52:42.313Z,24.00
2023-03-06T21:55:09.784Z,21.40
2023-03-06T21:57:36.933Z,23.07
2023-03-06T22:00:08.323Z,21.40
2023-03-06T22:02:38.063Z,26.03
2023-03-06T22:05:06.005Z,27.70
2023-03-06T22:07:36.978Z,22.50
2023-03-06T22:10:05.000Z,24.73
2023-03-06T22:12:34.530Z,32.13
2023-03-06T22:15:01.666Z,30.70
2023-03-06T22:17:28.892Z,25.50
2023-03-06T22:19:56.007Z,26.30
2023-03-06T22:22:23.216Z,25.70
2023-03-06T22:24:50.339Z,27.03
2023-03-06T22:27:17.555Z,28.67
2023-03-06T22:29:46.049Z,31.83
2023-03-06T22:32:13.395Z,27.83
2023-03-06T22:34:40.635Z,26.33
2023-03-06T22:37:10.691Z,27.60
2023-03-06T22:39:37.881Z,30.17
2023-03-06T22:42:05.252Z,23.10
2023-03-06T22:44:32.454Z,27.23
2023-03-06T22:46:59.622Z,26.63
2023-03-06T22:49:27.150Z,29.67
2023-03-06T22:51:54.289Z,27.60
2023-03-06T22:54:22.453Z,24.53
2023-03-06T22:56:49.584Z,32.17
2023-03-06T22:59:16.704Z,29.40
2023-03-06T23:01:43.976Z,30.87
2023-03-06T23:04:11.473Z,32.67
2023-03-06T23:06:39.978Z,29.80
2023-03-06T23:09:09.129Z,26.90
2023-03-06T23:11:54.786Z,32.57
2023-03-06T23:14:40.604Z,29.73
2023-03-06T23:17:27.529Z,28.90
2023-03-06T23:20:13.610Z,28.83
2023-03-06T23:22:59.986Z,31.90
2023-03-06T23:25:43.388Z,29.63
2023-03-06T23:28:10.765Z,30.10
2023-03-06T23:30:41.538Z,32.60
2023-03-06T23:33:09.105Z,28.63
2023-03-06T23:35:37.094Z,33.37
2023-03-06T23:38:04.223Z,30.60
2023-03-06T23:40:34.014Z,30.30
2023-03-06T23:43:01.246Z,28.60
2023-03-06T23:45:28.443Z,34.93
2023-03-06T23:47:55.875Z,29.03
2023-03-06T23:50:24.165Z,29.33
2023-03-06T23:52:54.912Z,30.97
2023-03-06T23:55:22.075Z,32.93
2023-03-06T23:57:49.401Z,36.50
